createdAt,value
2019-06-08T00:00:16.776Z,48.86
2019-06-08T00:02:45.354Z,49.49
2019-06-08T00:05:14.723Z,48.79
2019-06-08T00:07:43.228Z,48.64
2019-06-08T00:10:12.748Z,48.60
2019-06-08T00:12:41.309Z,48.43
2019-06-08T00:15:10.867Z,48.18
2019-06-08T00:17:39.452Z,48.25
2019-06-08T00:20:09.516Z,47.97
2019-06-08T00:22:37.955Z,47.78
2019-06-08T00:25:08.964Z,47.80
2019-06-08T00:27:37.390Z,47.33
2019-06-08T00:30:07.772Z,47.62
2019-06-08T00:32:36.169Z,46.87
2019-06-08T00:35:08.239Z,46.39
2019-06-08T00:37:36.728Z,46.85
2019-06-08T00:40:08.030Z,46.64
2019-06-08T00:42:36.685Z,46.99
2019-06-08T00:45:09.476Z,46.84
2019-06-08T00:47:47.538Z,47.09
2019-06-08T00:50:33.085Z,47.28
2019-06-08T00:53:01.521Z,47.87
2019-06-08T00:55:29.995Z,47.18
2019-06-08T00:58:12.721Z,47.19
2019-06-08T01:00:41.300Z,47.38
2019-06-08T01:03:09.721Z,47.31
2019-06-08T01:05:38.135Z,46.96
2019-06-08T01:08:06.980Z,46.80
2019-06-08T01:10:35.429Z,47.59
2019-06-08T01:13:03.930Z,47.60
2019-06-08T01:15:34.254Z,47.73
2019-06-08T01:18:04.384Z,48.17
2019-06-08T01:20:40.225Z,48.03
2019-06-08T01:23:11.502Z,47.68
2019-06-08T01:25:40.044Z,47.98
2019-06-08T01:28:08.601Z,47.63
2019-06-08T01:30:51.177Z,47.63
2019-06-08T01:33:20.762Z,48.00
2019-06-08T01:35:49.174Z,48.05
2019-06-08T01:38:17.600Z,48.32
2019-06-08T01:40:46.010Z,48.85
2019-06-08T01:43:14.965Z,48.34
2019-06-08T01:45:50.576Z,47.96
2019-06-08T01:48:22.437Z,47.83
2019-06-08T01:50:51.997Z,47.85
2019-06-08T01:53:20.462Z,48.20
2019-06-08T01:55:48.867Z,48.00
2019-06-08T01:58:17.291Z,48.38
2019-06-08T02:00:45.694Z,47.88
2019-06-08T02:03:14.146Z,48.46
2019-06-08T02:05:42.622Z,48.41
2019-06-08T02:08:11.177Z,48.92
2019-06-08T02:10:39.611Z,48.58
2019-06-08T02:13:08.917Z,48.36
2019-06-08T02:15:37.546Z,48.70
2019-06-08T02:18:06.131Z,48.63
2019-06-08T02:20:35.288Z,48.79
2019-06-08T02:23:03.748Z,48.02
2019-06-08T02:25:33.536Z,48.69
2019-06-08T02:28:02.067Z,48.71
2019-06-08T02:30:35.711Z,48.17
2019-06-08T02:33:02.590Z,47.91
2019-06-08T02:35:32.655Z,48.18
2019-06-08T02:38:01.267Z,48.63
2019-06-08T02:40:30.772Z,48.85
2019-06-08T02:42:59.998Z,49.47
2019-06-08T02:45:29.630Z,48.27
2019-06-08T02:47:58.562Z,48.58
2019-06-08T02:50:48.128Z,48.08
2019-06-08T02:53:17.939Z,48.46
2019-06-08T02:55:47.783Z,48.05
2019-06-08T02:58:18.041Z,47.99
2019-06-08T03:00:51.226Z,47.82
2019-06-08T03:03:19.649Z,47.40
2019-06-08T03:05:50.507Z,48.01
2019-06-08T03:08:20.573Z,47.23
2019-06-08T03:10:52.837Z,47.45
2019-06-08T03:13:22.743Z,47.88
2019-06-08T03:15:51.237Z,47.42
2019-06-08T03:18:19.644Z,47.64
2019-06-08T03:20:48.067Z,48.46
2019-06-08T03:23:16.552Z,48.39
2019-06-08T03:25:52.571Z,48.36
2019-06-08T03:28:15.463Z,48.09
2019-06-08T03:30:52.484Z,49.06
2019-06-08T03:33:14.034Z,48.96
2019-06-08T03:35:54.927Z,48.54
2019-06-08T03:38:12.594Z,48.28
2019-06-08T03:40:42.821Z,48.69
2019-06-08T03:43:11.175Z,48.80
2019-06-08T03:45:40.775Z,48.54
2019-06-08T03:48:09.737Z,48.94
2019-06-08T03:50:40.208Z,49.15
2019-06-08T03:53:08.308Z,49.26
2019-06-08T03:55:38.007Z,48.92
2019-06-08T03:58:07.036Z,49.21
2019-06-08T04:00:36.382Z,50.06
2019-06-08T04:03:05.150Z,48.94
2019-06-08T04:05:33.565Z,48.68
2019-06-08T04:08:02.061Z,48.92
2019-06-08T04:10:30.537Z,48.40
2019-06-08T04:12:58.972Z,47.96
2019-06-08T04:15:27.378Z,49.15
2019-06-08T04:17:55.795Z,49.38
2019-06-08T04:20:24.209Z,49.16
2019-06-08T04:22:52.655Z,48.77
2019-06-08T04:25:21.095Z,48.82
2019-06-08T04:27:51.079Z,48.71
2019-06-08T04:30:19.762Z,48.68
2019-06-08T04:32:49.729Z,49.72
2019-06-08T04:35:18.292Z,48.79
2019-06-08T04:37:47.088Z,49.39
2019-06-08T04:40:15.986Z,49.62
2019-06-08T04:42:46.665Z,49.28
2019-06-08T04:45:15.213Z,49.79
2019-06-08T04:47:45.603Z,50.14
2019-06-08T04:50:22.487Z,49.80
2019-06-08T04:52:44.919Z,49.92
2019-06-08T04:55:13.687Z,49.23
2019-06-08T04:57:43.367Z,49.75
2019-06-08T05:00:13.490Z,49.92
2019-06-08T05:02:44.224Z,49.76
2019-06-08T05:05:12.588Z,49.22
2019-06-08T05:07:41.547Z,49.42
2019-06-08T05:10:13.262Z,49.83
2019-06-08T05:12:43.303Z,49.49
2019-06-08T05:15:12.122Z,49.95
2019-06-08T05:17:41.313Z,50.15
2019-06-08T05:20:10.075Z,49.85
2019-06-08T05:22:39.463Z,49.88
2019-06-08T05:25:08.090Z,50.08
2019-06-08T05:27:36.505Z,49.72
2019-06-08T05:30:08.794Z,49.61
2019-06-08T05:32:37.446Z,49.57
2019-06-08T05:35:07.432Z,49.77
2019-06-08T05:37:35.838Z,50.66
2019-06-08T05:40:05.834Z,50.22
2019-06-08T05:42:34.236Z,51.45
2019-06-08T05:45:02.674Z,50.98
2019-06-08T05:47:31.104Z,50.52
2019-06-08T05:49:59.542Z,51.13
2019-06-08T05:52:28.020Z,51.07
2019-06-08T05:54:56.438Z,51.99
2019-06-08T05:57:24.846Z,51.32
2019-06-08T05:59:53.297Z,51.29
2019-06-08T06:02:21.788Z,50.85
2019-06-08T06:04:52.202Z,51.18
2019-06-08T06:07:20.408Z,51.31
2019-06-08T06:09:48.903Z,50.79
2019-06-08T06:12:17.268Z,51.79
2019-06-08T06:14:46.838Z,50.73
2019-06-08T06:17:15.313Z,51.44
2019-06-08T06:19:45.075Z,52.80
2019-06-08T06:22:13.560Z,52.13
2019-06-08T06:24:43.672Z,52.77
2019-06-08T06:27:12.157Z,52.19
2019-06-08T06:29:41.382Z,52.37
2019-06-08T06:32:09.936Z,53.48
2019-06-08T06:34:38.445Z,53.86
2019-06-08T06:37:06.859Z,52.50
2019-06-08T06:39:35.316Z,54.11
2019-06-08T06:42:03.810Z,53.44
2019-06-08T06:44:32.253Z,53.34
2019-06-08T06:47:00.659Z,53.19
2019-06-08T06:49:29.088Z,54.64
2019-06-08T06:51:57.502Z,53.79
2019-06-08T06:54:25.933Z,53.23
2019-06-08T06:56:54.769Z,53.97
2019-06-08T06:59:23.838Z,53.48
2019-06-08T07:01:57.168Z,54.03
2019-06-08T07:04:22.714Z,54.38
2019-06-08T07:06:52.271Z,54.97
2019-06-08T07:09:20.858Z,55.22
2019-06-08T07:11:49.327Z,54.54
2019-06-08T07:14:17.759Z,55.38
2019-06-08T07:16:47.775Z,54.55
2019-06-08T07:19:16.229Z,53.10
2019-06-08T07:21:46.043Z,53.25
2019-06-08T07:24:14.654Z,51.30
2019-06-08T07:26:43.100Z,52.47
2019-06-08T07:29:11.625Z,51.46
2019-06-08T07:31:40.024Z,51.75
2019-06-08T07:34:08.553Z,52.37
2019-06-08T07:36:36.980Z,52.57
2019-06-08T07:39:07.838Z,51.37
2019-06-08T07:41:36.265Z,50.81
2019-06-08T07:44:05.063Z,51.98
2019-06-08T07:46:33.531Z,50.84
2019-06-08T07:49:01.956Z,51.00
2019-06-08T07:51:30.382Z,51.50
2019-06-08T07:53:59.935Z,50.23
2019-06-08T07:56:28.429Z,51.00
2019-06-08T07:58:57.266Z,50.76
2019-06-08T08:01:36.374Z,50.48
2019-06-08T08:03:58.987Z,50.31
2019-06-08T08:06:30.389Z,50.12
2019-06-08T08:08:58.901Z,51.67
2019-06-08T08:11:27.356Z,50.10
2019-06-08T08:13:57.478Z,50.25
2019-06-08T08:16:25.887Z,49.66
2019-06-08T08:18:55.571Z,49.44
2019-06-08T08:21:26.523Z,49.67
2019-06-08T08:23:55.940Z,49.59
2019-06-08T08:26:27.153Z,49.50
2019-06-08T08:28:59.696Z,49.79
2019-06-08T08:31:27.855Z,50.03
2019-06-08T08:34:03.085Z,49.63
2019-06-08T08:36:29.442Z,49.64
2019-06-08T08:39:00.560Z,50.12
2019-06-08T08:41:28.419Z,49.92
2019-06-08T08:44:01.871Z,50.10
2019-06-08T08:46:28.539Z,50.15
2019-06-08T08:49:06.028Z,50.32
2019-06-08T08:51:28.080Z,49.54
2019-06-08T08:54:02.035Z,50.63
2019-06-08T08:56:28.032Z,51.18
2019-06-08T08:58:59.224Z,50.17
2019-06-08T09:01:28.836Z,49.55
2019-06-08T09:04:01.670Z,50.53
2019-06-08T09:06:28.023Z,50.11
2019-06-08T09:09:00.797Z,50.81
2019-06-08T09:11:28.924Z,49.24
2019-06-08T09:14:02.494Z,49.19
2019-06-08T09:16:28.801Z,49.04
2019-06-08T09:19:02.123Z,48.97
2019-06-08T09:21:28.955Z,49.63
2019-06-08T09:24:00.663Z,48.13
2019-06-08T09:26:31.063Z,48.87
2019-06-08T09:28:58.393Z,47.90
2019-06-08T09:31:28.121Z,49.05
2019-06-08T09:34:07.494Z,48.23
2019-06-08T09:36:28.665Z,48.87
2019-06-08T09:39:00.622Z,48.71
2019-06-08T09:41:31.040Z,48.22
2019-06-08T09:44:00.544Z,49.26
2019-06-08T09:46:28.311Z,48.55
2019-06-08T09:48:59.504Z,49.45
2019-06-08T09:51:28.544Z,48.07
2019-06-08T09:54:00.864Z,48.39
2019-06-08T09:56:28.252Z,47.47
2019-06-08T09:59:01.294Z,48.11
2019-06-08T10:01:28.607Z,47.74
2019-06-08T10:04:00.836Z,48.25
2019-06-08T10:06:27.378Z,49.12
2019-06-08T10:08:56.339Z,48.08
2019-06-08T10:11:24.908Z,48.18
2019-06-08T10:13:54.496Z,47.37
2019-06-08T10:16:23.062Z,48.93
2019-06-08T10:18:51.663Z,46.55
2019-06-08T10:21:21.151Z,47.17
2019-06-08T10:23:49.780Z,46.42
2019-06-08T10:26:18.269Z,46.74
2019-06-08T10:28:48.269Z,46.79
2019-06-08T10:31:17.613Z,46.86
2019-06-08T10:33:48.222Z,47.05
2019-06-08T10:36:18.285Z,47.45
2019-06-08T10:38:47.967Z,47.62
2019-06-08T10:41:21.114Z,47.00
2019-06-08T10:43:48.221Z,46.93
2019-06-08T10:46:20.491Z,46.22
2019-06-08T10:48:48.645Z,47.19
2019-06-08T10:51:18.346Z,47.78
2019-06-08T10:53:52.605Z,47.26
2019-06-08T10:56:18.881Z,48.06
2019-06-08T10:58:49.701Z,48.11
2019-06-08T11:01:19.002Z,48.84
2019-06-08T11:03:48.951Z,47.80
2019-06-08T11:06:18.832Z,47.82
2019-06-08T11:08:47.565Z,49.17
2019-06-08T11:11:19.525Z,47.68
2019-06-08T11:13:50.059Z,47.51
2019-06-08T11:16:17.954Z,47.26
2019-06-08T11:18:50.545Z,46.79
2019-06-08T11:21:18.756Z,47.20
2019-06-08T11:24:04.701Z,46.70
2019-06-08T11:26:20.776Z,47.15
2019-06-08T11:28:51.151Z,46.13
2019-06-08T11:31:19.544Z,47.33
2019-06-08T11:33:49.433Z,47.29
2019-06-08T11:36:18.964Z,46.97
2019-06-08T11:38:47.857Z,47.38
2019-06-08T11:41:19.053Z,47.76
2019-06-08T11:43:46.806Z,46.08
2019-06-08T11:46:18.249Z,43.79
2019-06-08T11:48:45.460Z,41.55
2019-06-08T11:51:13.957Z,42.79
2019-06-08T11:53:42.426Z,43.36
2019-06-08T11:56:13.292Z,43.54
2019-06-08T11:58:42.655Z,44.26
2019-06-08T12:01:13.757Z,44.91
2019-06-08T12:03:41.219Z,43.72
2019-06-08T12:06:12.938Z,44.61
2019-06-08T12:08:39.948Z,44.40
2019-06-08T12:11:14.532Z,44.25
2019-06-08T12:13:38.653Z,43.75
2019-06-08T12:16:11.624Z,43.25
2019-06-08T12:18:40.112Z,43.49
2019-06-08T12:21:08.672Z,42.19
2019-06-08T12:23:37.600Z,42.55
2019-06-08T12:26:06.180Z,43.98
2019-06-08T12:28:34.705Z,42.92
2019-06-08T12:31:03.137Z,43.03
2019-06-08T12:33:31.539Z,43.94
2019-06-08T12:35:59.934Z,43.40
2019-06-08T12:38:32.185Z,43.17
2019-06-08T12:40:58.768Z,41.48
2019-06-08T12:43:28.391Z,40.24
2019-06-08T12:45:58.089Z,40.03
2019-06-08T12:48:28.587Z,40.72
2019-06-08T12:50:56.746Z,41.42
2019-06-08T12:53:25.186Z,42.40
2019-06-08T12:55:53.609Z,43.48
2019-06-08T12:58:22.137Z,42.33
2019-06-08T13:00:50.535Z,40.63
2019-06-08T13:03:18.965Z,40.23
2019-06-08T13:05:47.433Z,40.04
2019-06-08T13:08:15.931Z,40.30
2019-06-08T13:10:44.876Z,40.58
2019-06-08T13:13:14.438Z,41.35
2019-06-08T13:15:43.150Z,38.78
2019-06-08T13:18:12.307Z,38.52
2019-06-08T13:20:41.672Z,41.36
2019-06-08T13:23:11.515Z,39.29
2019-06-08T13:25:43.809Z,39.96
2019-06-08T13:28:15.136Z,41.94
2019-06-08T13:30:40.366Z,40.73
2019-06-08T13:33:09.953Z,41.04
2019-06-08T13:35:39.486Z,41.42
2019-06-08T13:38:10.589Z,43.46
2019-06-08T13:40:40.368Z,45.20
2019-06-08T13:43:08.962Z,45.55
2019-06-08T13:45:39.449Z,44.54
2019-06-08T13:48:09.167Z,44.64
2019-06-08T13:50:37.593Z,42.47
2019-06-08T13:53:10.532Z,40.37
2019-06-08T13:55:51.771Z,38.80
2019-06-08T13:58:06.627Z,39.38
2019-06-08T14:00:38.541Z,39.85
2019-06-08T14:03:08.592Z,39.43
2019-06-08T14:05:47.808Z,39.79
2019-06-08T14:08:17.192Z,39.17
2019-06-08T14:10:48.254Z,39.43
2019-06-08T14:13:19.742Z,40.88
2019-06-08T14:15:48.579Z,41.50
2019-06-08T14:18:25.002Z,40.78
2019-06-08T14:20:50.241Z,41.54
2019-06-08T14:23:21.073Z,40.97
2019-06-08T14:25:56.474Z,39.46
2019-06-08T14:28:21.042Z,39.88
2019-06-08T14:30:49.174Z,40.97
2019-06-08T14:33:23.530Z,40.82
2019-06-08T14:35:47.756Z,41.80
2019-06-08T14:38:19.444Z,41.47
2019-06-08T14:40:47.520Z,41.96
2019-06-08T14:43:17.694Z,41.77
2019-06-08T14:45:46.268Z,42.39
2019-06-08T14:48:14.853Z,42.08
2019-06-08T14:50:43.382Z,41.76
2019-06-08T14:53:11.819Z,41.69
2019-06-08T14:55:40.246Z,41.45
2019-06-08T14:58:08.748Z,41.02
2019-06-08T15:00:38.086Z,41.29
2019-06-08T15:03:07.740Z,42.42
2019-06-08T15:05:36.462Z,42.63
2019-06-08T15:08:04.946Z,48.05
2019-06-08T15:10:33.519Z,55.35
2019-06-08T15:13:01.919Z,57.67
2019-06-08T15:15:32.200Z,58.58
2019-06-08T15:18:00.729Z,56.88
2019-06-08T15:20:30.302Z,55.92
2019-06-08T15:22:58.834Z,53.26
2019-06-08T15:25:29.630Z,51.54
2019-06-08T15:27:58.167Z,50.12
2019-06-08T15:30:30.903Z,50.51
2019-06-08T15:32:58.730Z,50.68
2019-06-08T15:35:27.542Z,50.56
2019-06-08T15:37:58.301Z,53.33
2019-06-08T15:40:26.110Z,52.11
2019-06-08T15:42:54.553Z,52.62
2019-06-08T15:45:24.243Z,56.57
2019-06-08T15:47:52.855Z,58.51
2019-06-08T15:50:22.288Z,57.77
2019-06-08T15:52:50.923Z,57.82
2019-06-08T15:55:19.676Z,62.88
2019-06-08T15:57:48.249Z,66.52
2019-06-08T16:00:18.510Z,68.33
2019-06-08T16:02:47.023Z,68.32
2019-06-08T16:05:15.549Z,66.75
2019-06-08T16:07:44.029Z,67.07
2019-06-08T16:10:12.826Z,68.05
2019-06-08T16:12:41.245Z,67.37
2019-06-08T16:15:09.995Z,66.76
2019-06-08T16:17:38.429Z,64.60
2019-06-08T16:20:07.680Z,65.34
2019-06-08T16:22:36.116Z,65.12
2019-06-08T16:25:06.990Z,64.55
2019-06-08T16:27:35.969Z,64.31
2019-06-08T16:30:09.625Z,64.26
2019-06-08T16:32:36.733Z,63.51
2019-06-08T16:35:06.208Z,63.99
2019-06-08T16:37:35.731Z,62.89
2019-06-08T16:40:09.200Z,62.30
2019-06-08T16:42:38.702Z,63.08
2019-06-08T16:45:08.246Z,64.37
2019-06-08T16:47:36.684Z,63.72
2019-06-08T16:50:22.941Z,63.75
2019-06-08T16:52:39.741Z,63.67
2019-06-08T16:55:08.422Z,64.01
2019-06-08T16:57:39.516Z,63.04
2019-06-08T17:02:37.378Z,59.91
2019-06-08T17:05:07.750Z,60.70
2019-06-08T17:07:37.585Z,58.17
2019-06-08T17:10:10.250Z,57.74
2019-06-08T17:12:39.132Z,57.37
2019-06-08T17:15:08.020Z,57.20
2019-06-08T17:17:38.512Z,57.75
2019-06-08T17:20:07.290Z,57.10
2019-06-08T17:22:36.829Z,55.54
2019-06-08T17:25:08.616Z,54.75
2019-06-08T17:27:37.112Z,54.28
2019-06-08T17:30:09.755Z,54.97
2019-06-08T17:32:38.608Z,54.83
2019-06-08T17:35:11.820Z,54.12
2019-06-08T17:37:43.379Z,52.58
2019-06-08T17:40:12.345Z,53.24
2019-06-08T17:42:41.692Z,52.81
2019-06-08T17:45:10.364Z,52.80
2019-06-08T17:47:38.770Z,52.39
2019-06-08T17:50:07.340Z,52.43
2019-06-08T17:52:37.240Z,53.55
2019-06-08T17:55:06.810Z,52.55
2019-06-08T17:57:45.741Z,52.12
2019-06-08T18:00:08.198Z,52.49
2019-06-08T18:02:43.307Z,52.15
2019-06-08T18:05:11.431Z,52.59
2019-06-08T18:07:43.249Z,52.11
2019-06-08T18:10:10.370Z,52.88
2019-06-08T18:12:41.749Z,52.94
2019-06-08T18:15:09.554Z,53.82
2019-06-08T18:17:41.989Z,53.92
2019-06-08T18:20:14.099Z,54.05
2019-06-08T18:22:44.392Z,51.46
2019-06-08T18:25:13.343Z,51.00
2019-06-08T18:27:46.702Z,51.24
2019-06-08T18:30:14.618Z,51.33
2019-06-08T18:32:44.129Z,50.96
2019-06-08T18:35:13.678Z,51.02
2019-06-08T18:37:42.882Z,51.25
2019-06-08T18:40:18.689Z,51.64
2019-06-08T18:42:48.708Z,51.88
2019-06-08T18:45:18.469Z,51.50
2019-06-08T18:47:48.449Z,50.81
2019-06-08T18:50:17.531Z,51.06
2019-06-08T18:52:47.288Z,51.55
2019-06-08T18:55:18.197Z,51.59
2019-06-08T18:57:49.075Z,51.99
2019-06-08T19:00:17.554Z,51.99
2019-06-08T19:02:49.498Z,51.53
2019-06-08T19:05:20.774Z,51.11
2019-06-08T19:07:50.613Z,50.05
2019-06-08T19:10:32.066Z,49.10
2019-06-08T19:13:00.677Z,49.65
2019-06-08T19:15:39.836Z,49.33
2019-06-08T19:18:08.176Z,49.38
2019-06-08T19:20:40.682Z,49.80
2019-06-08T19:23:09.102Z,49.58
2019-06-08T19:25:41.090Z,49.52
2019-06-08T19:28:14.490Z,48.29
2019-06-08T19:30:45.253Z,49.45
2019-06-08T19:33:13.106Z,50.39
2019-06-08T19:35:42.358Z,50.71
2019-06-08T19:38:10.951Z,51.40
2019-06-08T19:40:40.660Z,52.25
2019-06-08T19:43:09.370Z,53.26
2019-06-08T19:45:39.155Z,54.92
2019-06-08T19:48:08.394Z,54.18
2019-06-08T19:50:38.639Z,54.20
2019-06-08T19:53:07.395Z,53.54
2019-06-08T19:55:35.952Z,53.39
2019-06-08T19:58:04.623Z,53.99
2019-06-08T20:00:33.172Z,53.99
2019-06-08T20:03:01.600Z,54.72
2019-06-08T20:05:30.032Z,53.67
2019-06-08T20:07:58.451Z,53.79
2019-06-08T20:10:28.063Z,53.09
2019-06-08T20:12:57.726Z,53.49
2019-06-08T20:15:26.218Z,54.01
2019-06-08T20:17:57.290Z,54.41
2019-06-08T20:20:24.800Z,53.50
2019-06-08T20:22:53.627Z,54.37
2019-06-08T20:25:22.057Z,53.91
2019-06-08T20:27:52.074Z,54.32
2019-06-08T20:30:20.617Z,56.01
2019-06-08T20:32:51.137Z,54.31
2019-06-08T20:35:19.184Z,54.50
2019-06-08T20:37:47.880Z,54.90
2019-06-08T20:40:17.993Z,55.61
2019-06-08T20:42:49.081Z,55.53
2019-06-08T20:45:21.843Z,55.29
2019-06-08T20:47:50.344Z,55.64
2019-06-08T20:50:17.863Z,55.06
2019-06-08T20:52:47.300Z,55.54
2019-06-08T20:55:17.470Z,54.84
2019-06-08T20:57:48.165Z,55.41
2019-06-08T21:00:16.324Z,54.93
2019-06-08T21:02:46.387Z,54.94
2019-06-08T21:05:14.922Z,55.26
2019-06-08T21:07:43.998Z,55.83
2019-06-08T21:10:13.882Z,55.96
2019-06-08T21:12:42.285Z,56.09
2019-06-08T21:15:10.875Z,56.23
2019-06-08T21:17:39.300Z,56.14
2019-06-08T21:20:08.638Z,55.58
2019-06-08T21:22:37.198Z,55.74
2019-06-08T21:25:08.937Z,56.82
2019-06-08T21:27:38.472Z,58.16
2019-06-08T21:30:19.945Z,58.16
2019-06-08T21:32:38.307Z,58.23
2019-06-08T21:35:07.671Z,58.51
2019-06-08T21:37:37.715Z,58.14
2019-06-08T21:40:08.494Z,58.58
2019-06-08T21:42:37.251Z,57.12
2019-06-08T21:45:09.745Z,58.22
2019-06-08T21:47:37.839Z,57.72
2019-06-08T21:50:08.026Z,57.72
2019-06-08T21:52:36.599Z,57.20
2019-06-08T21:55:07.254Z,55.90
2019-06-08T21:57:37.089Z,57.81
2019-06-08T22:00:26.806Z,57.26
2019-06-08T22:02:38.064Z,58.61
2019-06-08T22:05:08.257Z,59.12
2019-06-08T22:07:37.677Z,59.32
2019-06-08T22:10:07.648Z,58.60
2019-06-08T22:12:40.040Z,59.38
2019-06-08T22:15:07.762Z,60.48
2019-06-08T22:17:38.285Z,60.25
2019-06-08T22:20:08.059Z,60.91
2019-06-08T22:22:37.850Z,61.25
2019-06-08T22:25:08.283Z,59.39
2019-06-08T22:27:38.187Z,59.85
2019-06-08T22:30:11.616Z,58.84
2019-06-08T22:32:38.442Z,60.21
2019-06-08T22:35:07.993Z,59.69
2019-06-08T22:37:38.010Z,58.56
2019-06-08T22:40:08.238Z,58.77
2019-06-08T22:42:37.585Z,58.54
2019-06-08T22:45:08.416Z,58.18
2019-06-08T22:47:40.447Z,58.78
2019-06-08T22:50:09.095Z,58.59
2019-06-08T22:52:37.773Z,59.14
2019-06-08T22:55:10.641Z,57.99
2019-06-08T22:57:37.850Z,58.48
2019-06-08T23:00:16.557Z,59.72
2019-06-08T23:02:38.627Z,60.06
2019-06-08T23:05:08.981Z,59.14
2019-06-08T23:07:37.790Z,58.95
2019-06-08T23:10:08.869Z,59.78
2019-06-08T23:12:38.325Z,60.22
2019-06-08T23:15:08.475Z,60.38
2019-06-08T23:17:38.629Z,60.65
2019-06-08T23:20:08.596Z,60.88
2019-06-08T23:22:38.542Z,60.28
2019-06-08T23:25:09.266Z,60.57
2019-06-08T23:27:38.217Z,60.42
2019-06-08T23:30:10.126Z,60.62
2019-06-08T23:32:38.990Z,59.68
2019-06-08T23:35:09.452Z,60.71
2019-06-08T23:37:38.234Z,61.03
2019-06-08T23:40:07.721Z,62.19
2019-06-08T23:42:38.290Z,62.65
2019-06-08T23:45:10.150Z,63.05
2019-06-08T23:47:38.498Z,63.34
2019-06-08T23:50:09.990Z,63.28
2019-06-08T23:52:38.296Z,63.54
2019-06-08T23:55:11.404Z,63.38
2019-06-08T23:57:38.028Z,62.91
